createdAt,value
2022-11-28T00:01:20.045Z,101391.41
2022-11-28T00:03:46.713Z,101402.94
2022-11-28T00:06:13.341Z,101400.06
2022-11-28T00:08:40.054Z,101403.88
2022-11-28T00:11:08.277Z,101404.62
2022-11-28T00:13:35.063Z,101406.47
2022-11-28T00:16:03.116Z,101401.72
2022-11-28T00:18:30.028Z,101406.56
2022-11-28T00:21:04.097Z,101401.22
2022-11-28T00:23:30.701Z,101402.00
2022-11-28T00:26:01.180Z,101400.28
2022-11-28T00:28:27.941Z,101396.75
2022-11-28T00:30:54.526Z,101402.22
2022-11-28T00:33:21.122Z,101397.81
2022-11-28T00:35:47.738Z,101405.69
2022-11-28T00:38:14.365Z,101411.06
2022-11-28T00:40:40.973Z,101412.75
2022-11-28T00:43:07.553Z,101412.03
2022-11-28T00:45:34.278Z,101413.91
2022-11-28T00:48:00.870Z,101411.31
2022-11-28T00:50:27.434Z,101411.97
2022-11-28T00:52:53.996Z,101410.37
2022-11-28T00:55:20.548Z,101409.31
2022-11-28T00:57:47.134Z,101409.44
2022-11-28T01:00:14.283Z,101407.72
2022-11-28T01:02:40.920Z,101405.91
2022-11-28T01:05:07.891Z,101412.09
2022-11-28T01:07:34.525Z,101410.37
2022-11-28T01:10:01.144Z,101414.78
2022-11-28T01:12:27.724Z,101414.91
2022-11-28T01:14:56.000Z,101411.06
2022-11-28T01:17:22.544Z,101411.03
2022-11-28T01:19:49.137Z,101403.97
2022-11-28T01:22:15.703Z,101409.44
2022-11-28T01:24:42.613Z,101408.66
2022-11-28T01:27:09.390Z,101388.09
2022-11-28T01:29:35.986Z,101395.87
2022-11-28T01:32:02.589Z,101394.19
2022-11-28T01:34:29.170Z,101399.53
2022-11-28T01:36:55.797Z,101392.66
2022-11-28T01:39:22.381Z,101391.53
2022-11-28T01:41:48.945Z,101399.41
2022-11-28T01:44:15.349Z,101389.81
2022-11-28T01:46:41.990Z,101385.50
2022-11-28T01:49:23.843Z,101382.87
2022-11-28T01:52:17.229Z,101378.06
2022-11-28T01:54:45.162Z,101362.03
2022-11-28T01:57:14.151Z,101363.13
2022-11-28T01:59:43.395Z,101357.72
2022-11-28T02:02:13.610Z,101356.94
2022-11-28T02:04:40.479Z,101356.06
2022-11-28T02:07:07.232Z,101361.31
2022-11-28T02:09:33.867Z,101350.72
2022-11-28T02:12:40.466Z,101360.47
2022-11-28T02:15:13.388Z,101350.44
2022-11-28T02:17:49.070Z,101347.94
2022-11-28T02:20:24.606Z,101349.44
2022-11-28T02:22:54.897Z,101353.03
2022-11-28T02:25:58.084Z,101345.09
2022-11-28T02:28:46.495Z,101344.44
2022-11-28T02:31:33.789Z,101339.91
2022-11-28T02:34:02.772Z,101336.53
2022-11-28T02:36:38.229Z,101339.03
2022-11-28T02:39:50.962Z,101338.16
2022-11-28T02:42:23.665Z,101330.03
2022-11-28T02:45:01.002Z,101329.06
2022-11-28T02:47:29.895Z,101326.50
2022-11-28T02:49:56.337Z,101325.63
2022-11-28T02:52:26.778Z,101325.78
2022-11-28T02:54:53.363Z,101316.75
2022-11-28T02:57:19.923Z,101318.78
2022-11-28T02:59:48.949Z,101321.69
2022-11-28T03:02:24.245Z,101314.47
2022-11-28T03:04:59.226Z,101321.94
2022-11-28T03:07:50.962Z,101317.00
2022-11-28T03:10:39.430Z,101315.84
2022-11-28T03:13:19.034Z,101319.34
2022-11-28T03:16:14.471Z,101316.56
2022-11-28T03:19:10.240Z,101311.94
2022-11-28T03:21:55.468Z,101317.09
2022-11-28T03:24:46.898Z,101305.44
2022-11-28T03:27:14.670Z,101307.91
2022-11-28T03:29:52.434Z,101305.06
2022-11-28T03:32:24.421Z,101297.75
2022-11-28T03:34:56.590Z,101304.50
2022-11-28T03:37:31.848Z,101291.69
2022-11-28T03:40:07.312Z,101295.63
2022-11-28T03:42:36.577Z,101290.06
2022-11-28T03:45:18.725Z,101282.69
2022-11-28T03:47:47.411Z,101269.00
2022-11-28T03:50:16.671Z,101274.81
2022-11-28T03:52:46.483Z,101261.00
2022-11-28T03:55:22.985Z,101270.38
2022-11-28T03:58:00.264Z,101255.88
2022-11-28T04:00:27.176Z,101258.94
2022-11-28T04:03:13.493Z,101254.03
2022-11-28T04:06:19.231Z,101259.56
2022-11-28T04:08:52.459Z,101246.53
2022-11-28T04:11:21.105Z,101248.97
2022-11-28T04:14:23.628Z,101249.78
2022-11-28T04:17:08.906Z,101243.37
2022-11-28T04:19:50.922Z,101234.47
2022-11-28T04:22:38.734Z,101236.13
2022-11-28T04:25:08.151Z,101234.25
2022-11-28T04:27:39.869Z,101233.94
2022-11-28T04:30:07.184Z,101235.84
2022-11-28T04:32:36.034Z,101226.94
2022-11-28T04:35:09.477Z,101225.22
2022-11-28T04:37:37.393Z,101231.13
2022-11-28T04:40:04.511Z,101227.34
2022-11-28T04:42:39.005Z,101223.84
2022-11-28T04:45:14.564Z,101223.47
2022-11-28T04:47:41.221Z,101219.56
2022-11-28T04:50:08.106Z,101229.59
2022-11-28T04:52:37.969Z,101231.59
2022-11-28T04:55:07.294Z,101224.16
2022-11-28T04:57:39.183Z,101215.22
2022-11-28T05:00:11.401Z,101226.00
2022-11-28T05:02:38.060Z,101219.87
2022-11-28T05:05:24.549Z,101219.53
2022-11-28T05:07:52.295Z,101215.72
2022-11-28T05:10:19.055Z,101216.56
2022-11-28T05:12:46.122Z,101219.28
2022-11-28T05:15:12.875Z,101232.75
2022-11-28T05:17:42.428Z,101231.66
2022-11-28T05:20:09.590Z,101227.13
2022-11-28T05:22:36.205Z,101230.47
2022-11-28T05:25:02.761Z,101224.09
2022-11-28T05:27:29.525Z,101233.75
2022-11-28T05:29:56.141Z,101230.84
2022-11-28T05:32:22.770Z,101233.53
2022-11-28T05:34:49.362Z,101239.66
2022-11-28T05:37:16.100Z,101233.03
2022-11-28T05:39:42.950Z,101231.13
2022-11-28T05:42:09.709Z,101244.34
2022-11-28T05:44:37.207Z,101247.06
2022-11-28T05:47:03.823Z,101251.38
2022-11-28T05:49:30.422Z,101256.63
2022-11-28T05:51:57.023Z,101255.66
2022-11-28T05:54:23.598Z,101252.72
2022-11-28T05:56:50.181Z,101264.22
2022-11-28T05:59:16.710Z,101255.19
2022-11-28T06:01:43.522Z,101257.75
2022-11-28T06:04:10.248Z,101256.91
2022-11-28T06:06:37.086Z,101260.44
2022-11-28T06:09:04.174Z,101258.75
2022-11-28T06:11:31.336Z,101256.03
2022-11-28T06:13:59.326Z,101252.38
2022-11-28T06:16:27.224Z,101253.97
2022-11-28T06:18:55.007Z,101257.53
2022-11-28T06:21:21.878Z,101253.00
2022-11-28T06:23:50.938Z,101261.94
2022-11-28T06:26:19.304Z,101253.84
2022-11-28T06:28:45.930Z,101259.25
2022-11-28T06:31:16.471Z,101253.97
2022-11-28T06:33:43.155Z,101257.53
2022-11-28T06:36:13.802Z,101252.75
2022-11-28T06:38:40.553Z,101257.91
2022-11-28T06:41:11.987Z,101250.66
2022-11-28T06:43:38.680Z,101263.28
2022-11-28T06:46:05.549Z,101266.84
2022-11-28T06:48:32.572Z,101257.91
2022-11-28T06:51:08.256Z,101264.06
2022-11-28T06:53:35.008Z,101270.16
2022-11-28T06:56:08.881Z,101271.16
2022-11-28T06:58:35.732Z,101264.69
2022-11-28T07:01:19.428Z,101278.28
2022-11-28T07:03:48.807Z,101265.84
2022-11-28T07:06:16.130Z,101277.81
2022-11-28T07:08:42.805Z,101282.72
2022-11-28T07:11:22.776Z,101273.78
2022-11-28T07:13:49.586Z,101274.16
2022-11-28T07:16:23.538Z,101272.13
2022-11-28T07:18:50.768Z,101279.41
2022-11-28T07:21:17.427Z,101277.81
2022-11-28T07:23:44.143Z,101277.69
2022-11-28T07:26:11.338Z,101278.06
2022-11-28T07:28:37.900Z,101280.09
2022-11-28T07:31:18.648Z,101270.91
2022-11-28T07:33:46.511Z,101272.94
2022-11-28T07:36:23.464Z,101279.38
2022-11-28T07:38:51.262Z,101269.84
2022-11-28T07:41:19.695Z,101261.94
2022-11-28T07:43:49.728Z,101263.31
2022-11-28T07:46:17.427Z,101261.22
2022-11-28T07:48:44.091Z,101251.38
2022-11-28T07:51:12.486Z,101254.28
2022-11-28T07:53:39.333Z,101249.00
2022-11-28T07:56:07.676Z,101247.75
2022-11-28T07:58:34.957Z,101250.41
2022-11-28T08:01:11.866Z,101240.59
2022-11-28T08:03:38.506Z,101234.88
2022-11-28T08:06:05.324Z,101245.47
2022-11-28T08:08:31.997Z,101242.06
2022-11-28T08:11:02.986Z,101238.19
2022-11-28T08:13:29.687Z,101235.47
2022-11-28T08:15:56.312Z,101235.88
2022-11-28T08:18:23.025Z,101235.88
2022-11-28T08:20:50.405Z,101238.00
2022-11-28T08:23:17.250Z,101229.53
2022-11-28T08:25:43.859Z,101231.25
2022-11-28T08:28:10.554Z,101235.16
2022-11-28T08:30:37.190Z,101233.94
2022-11-28T08:33:04.360Z,101243.50
2022-11-28T08:35:31.259Z,101244.00
2022-11-28T08:38:02.217Z,101247.69
2022-11-28T08:40:29.000Z,101254.41
2022-11-28T08:42:55.901Z,101262.38
2022-11-28T08:45:22.546Z,101256.03
2022-11-28T08:47:49.135Z,101263.84
2022-11-28T08:50:15.746Z,101252.09
2022-11-28T08:52:42.422Z,101258.34
2022-11-28T08:55:09.329Z,101256.25
2022-11-28T08:57:35.979Z,101251.59
2022-11-28T09:00:02.688Z,101256.84
2022-11-28T09:02:29.262Z,101255.28
2022-11-28T09:04:55.861Z,101257.00
2022-11-28T09:07:22.502Z,101256.38
2022-11-28T09:09:49.310Z,101258.84
2022-11-28T09:12:16.742Z,101255.38
2022-11-28T09:14:43.319Z,101252.69
2022-11-28T09:17:10.315Z,101248.13
2022-11-28T09:19:39.875Z,101239.09
2022-11-28T09:22:06.731Z,101247.06
2022-11-28T09:24:35.689Z,101245.06
2022-11-28T09:27:02.725Z,101235.06
2022-11-28T09:29:29.518Z,101236.13
2022-11-28T09:31:56.326Z,101242.03
2022-11-28T09:34:22.899Z,101238.09
2022-11-28T09:36:50.137Z,101237.00
2022-11-28T09:39:16.796Z,101230.84
2022-11-28T09:41:49.291Z,101232.09
2022-11-28T09:44:24.275Z,101231.00
2022-11-28T09:46:52.678Z,101225.06
2022-11-28T09:49:24.088Z,101217.97
2022-11-28T09:51:59.353Z,101220.06
2022-11-28T09:54:29.222Z,101226.37
2022-11-28T09:56:56.066Z,101225.78
2022-11-28T09:59:29.474Z,101229.41
2022-11-28T10:02:21.032Z,101221.25
2022-11-28T10:05:00.531Z,101224.09
2022-11-28T10:07:54.683Z,101224.03
2022-11-28T10:10:43.766Z,101225.50
2022-11-28T10:14:06.787Z,101217.28
2022-11-28T10:16:53.173Z,101218.84
2022-11-28T10:19:57.315Z,101218.16
2022-11-28T10:22:14.108Z,101210.47
2022-11-28T10:24:53.921Z,101201.62
2022-11-28T10:27:26.625Z,101199.03
2022-11-28T10:30:10.753Z,101207.31
2022-11-28T10:32:42.162Z,101180.03
2022-11-28T10:35:56.908Z,101174.19
2022-11-28T10:38:27.365Z,101176.72
2022-11-28T10:41:03.352Z,101173.38
2022-11-28T10:44:03.061Z,101177.53
2022-11-28T10:46:48.437Z,101172.75
2022-11-28T10:49:22.212Z,101166.09
2022-11-28T10:51:55.074Z,101160.50
2022-11-28T10:54:59.852Z,101157.19
2022-11-28T10:57:35.340Z,101157.50
2022-11-28T11:00:09.393Z,101153.94
2022-11-28T11:02:37.469Z,101156.50
2022-11-28T11:05:05.509Z,101157.25
2022-11-28T11:07:32.953Z,101150.28
2022-11-28T11:10:15.739Z,101147.38
2022-11-28T11:12:42.371Z,101149.28
2022-11-28T11:15:31.150Z,101144.91
2022-11-28T11:17:58.505Z,101144.41
2022-11-28T11:20:43.113Z,101144.12
2022-11-28T11:23:20.448Z,101138.87
2022-11-28T11:25:52.207Z,101136.00
2022-11-28T11:28:27.159Z,101134.75
2022-11-28T11:31:01.204Z,101138.94
2022-11-28T11:33:32.754Z,101142.75
2022-11-28T11:35:59.340Z,101137.12
2022-11-28T11:38:34.757Z,101142.37
2022-11-28T11:41:29.020Z,101136.13
2022-11-28T11:43:56.865Z,101128.31
2022-11-28T11:46:23.511Z,101122.84
2022-11-28T11:48:53.421Z,101134.59
2022-11-28T11:51:27.730Z,101142.47
2022-11-28T11:54:20.710Z,101139.53
2022-11-28T11:56:51.213Z,101142.00
2022-11-28T11:59:28.962Z,101133.91
2022-11-28T12:02:01.805Z,101119.28
2022-11-28T12:04:46.547Z,101110.34
2022-11-28T12:07:29.796Z,101113.16
2022-11-28T12:10:04.186Z,101120.50
2022-11-28T12:12:31.619Z,101114.72
2022-11-28T12:14:58.227Z,101113.38
2022-11-28T12:17:48.418Z,101108.06
2022-11-28T12:20:39.733Z,101101.53
2022-11-28T12:23:35.691Z,101095.53
2022-11-28T12:26:39.134Z,101103.09
2022-11-28T12:29:12.842Z,101107.13
2022-11-28T12:31:51.690Z,101112.41
2022-11-28T12:34:37.792Z,101108.59
2022-11-28T12:37:19.467Z,101101.34
2022-11-28T12:40:31.860Z,101099.84
2022-11-28T12:43:12.356Z,101105.72
2022-11-28T12:46:03.416Z,101099.31
2022-11-28T12:48:39.695Z,101090.22
2022-11-28T12:51:27.456Z,101100.06
2022-11-28T12:54:16.130Z,101091.22
2022-11-28T12:56:58.251Z,101088.97
2022-11-28T12:59:42.458Z,101086.28
2022-11-28T13:02:20.911Z,101088.84
2022-11-28T13:05:06.475Z,101087.00
2022-11-28T13:08:17.889Z,101086.88
2022-11-28T13:10:50.884Z,101077.47
2022-11-28T13:13:24.066Z,101081.75
2022-11-28T13:16:04.196Z,101076.47
2022-11-28T13:18:43.534Z,101075.09
2022-11-28T13:21:25.207Z,101069.41
2022-11-28T13:24:07.358Z,101071.13
2022-11-28T13:27:05.961Z,101073.72
2022-11-28T13:29:51.484Z,101068.25
2022-11-28T13:32:30.288Z,101068.91
2022-11-28T13:34:58.938Z,101072.41
2022-11-28T13:40:56.157Z,101068.41
2022-11-28T13:43:35.268Z,101068.72
2022-11-28T13:46:01.868Z,101069.41
2022-11-28T13:49:13.300Z,101073.44
2022-11-28T13:51:31.706Z,101072.84
2022-11-28T13:54:17.343Z,101064.59
2022-11-28T13:56:48.575Z,101072.84
2022-11-28T13:59:17.865Z,101071.13
2022-11-28T14:01:45.793Z,101078.25
2022-11-28T14:04:13.846Z,101073.97
2022-11-28T14:06:47.354Z,101063.31
2022-11-28T14:09:16.871Z,101065.56
2022-11-28T14:11:55.454Z,101060.41
2022-11-28T14:14:40.071Z,101063.16
2022-11-28T14:17:12.577Z,101053.59
2022-11-28T14:20:00.368Z,101052.84
2022-11-28T14:22:51.880Z,101056.91
2022-11-28T14:25:34.046Z,101053.63
2022-11-28T14:28:02.518Z,101055.41
2022-11-28T14:30:41.507Z,101045.34
2022-11-28T14:33:17.219Z,101054.91
2022-11-28T14:35:53.041Z,101052.00
2022-11-28T14:38:31.410Z,101056.72
2022-11-28T14:41:05.442Z,101056.34
2022-11-28T14:43:36.964Z,101056.09
2022-11-28T14:46:15.879Z,101049.12
2022-11-28T14:49:02.756Z,101040.66
2022-11-28T14:51:47.929Z,101046.91
2022-11-28T14:54:22.037Z,101046.87
2022-11-28T14:56:49.526Z,101041.03
2022-11-28T14:59:16.157Z,101045.22
2022-11-28T15:01:54.829Z,101047.81
2022-11-28T15:04:30.367Z,101044.19
2022-11-28T15:06:57.093Z,101050.44
2022-11-28T15:09:56.744Z,101039.28
2022-11-28T15:12:35.121Z,101045.69
2022-11-28T15:15:01.754Z,101049.12
2022-11-28T15:17:30.832Z,101044.38
2022-11-28T15:19:57.759Z,101052.38
2022-11-28T15:22:32.386Z,101056.75
2022-11-28T15:24:59.192Z,101065.06
2022-11-28T15:27:26.747Z,101071.97
2022-11-28T15:30:03.518Z,101061.25
2022-11-28T15:32:30.160Z,101063.22
2022-11-28T15:35:01.129Z,101065.72
2022-11-28T15:37:36.753Z,101062.56
2022-11-28T15:40:07.105Z,101067.47
2022-11-28T15:42:34.548Z,101059.47
2022-11-28T15:45:24.473Z,101058.81
2022-11-28T15:47:51.844Z,101065.38
2022-11-28T15:50:20.474Z,101065.19
2022-11-28T15:53:17.654Z,101075.00
2022-11-28T15:55:44.303Z,101070.47
2022-11-28T15:58:21.255Z,101073.75
2022-11-28T16:01:02.019Z,101074.03
2022-11-28T16:03:34.175Z,101072.31
2022-11-28T16:06:00.814Z,101079.28
2022-11-28T16:08:28.449Z,101083.12
2022-11-28T16:10:55.371Z,101082.47
2022-11-28T16:13:22.085Z,101071.81
2022-11-28T16:15:50.351Z,101082.38
2022-11-28T16:18:17.132Z,101076.97
2022-11-28T16:20:43.724Z,101083.22
2022-11-28T16:23:15.389Z,101084.94
2022-11-28T16:25:41.986Z,101085.78
2022-11-28T16:28:34.462Z,101089.62
2022-11-28T16:31:01.246Z,101081.06
2022-11-28T16:33:38.036Z,101076.19
2022-11-28T16:36:24.375Z,101073.47
2022-11-28T16:39:04.027Z,101074.66
2022-11-28T16:41:32.056Z,101076.91
2022-11-28T16:44:00.728Z,101072.09
2022-11-28T16:46:32.830Z,101071.09
2022-11-28T16:48:59.571Z,101079.16
2022-11-28T16:51:25.992Z,101075.22
2022-11-28T16:53:55.177Z,101076.38
2022-11-28T16:56:31.271Z,101077.81
2022-11-28T16:59:00.665Z,101076.69
2022-11-28T17:01:29.061Z,101081.69
2022-11-28T17:03:57.320Z,101076.78
2022-11-28T17:06:27.308Z,101078.06
2022-11-28T17:08:53.989Z,101083.06
2022-11-28T17:11:22.542Z,101079.09
2022-11-28T17:13:49.184Z,101077.94
2022-11-28T17:16:23.341Z,101078.69
2022-11-28T17:18:50.114Z,101080.25
2022-11-28T17:21:18.988Z,101080.41
2022-11-28T17:23:45.585Z,101086.81
2022-11-28T17:26:12.183Z,101078.81
2022-11-28T17:28:38.893Z,101087.91
2022-11-28T17:31:05.587Z,101083.47
2022-11-28T17:33:32.187Z,101090.63
2022-11-28T17:35:58.752Z,101088.47
2022-11-28T17:38:25.318Z,101079.69
2022-11-28T17:40:51.904Z,101083.88
2022-11-28T17:43:20.173Z,101088.31
2022-11-28T17:45:47.371Z,101088.16
2022-11-28T17:48:15.981Z,101084.28
2022-11-28T17:50:49.765Z,101088.47
2022-11-28T17:53:17.924Z,101093.25
2022-11-28T17:55:47.227Z,101093.06
2022-11-28T17:58:18.722Z,101098.47
2022-11-28T18:00:45.782Z,101088.63
2022-11-28T18:03:12.923Z,101083.00
2022-11-28T18:05:41.272Z,101082.34
2022-11-28T18:08:07.897Z,101085.97
2022-11-28T18:10:34.484Z,101086.81
2022-11-28T18:13:01.872Z,101084.34
2022-11-28T18:15:28.616Z,101088.88
2022-11-28T18:17:55.372Z,101096.44
2022-11-28T18:20:22.063Z,101096.03
2022-11-28T18:22:48.696Z,101098.63
2022-11-28T18:25:15.286Z,101091.53
2022-11-28T18:27:41.930Z,101092.75
2022-11-28T18:30:08.992Z,101097.44
2022-11-28T18:32:35.574Z,101098.09
2022-11-28T18:35:02.164Z,101106.75
2022-11-28T18:37:28.715Z,101103.16
2022-11-28T18:39:55.289Z,101092.34
2022-11-28T18:42:21.878Z,101092.25
2022-11-28T18:44:48.661Z,101104.03
2022-11-28T18:47:15.246Z,101105.03
2022-11-28T18:49:42.166Z,101097.22
2022-11-28T18:52:08.987Z,101101.63
2022-11-28T18:54:35.604Z,101096.22
2022-11-28T18:57:02.166Z,101097.91
2022-11-28T18:59:28.711Z,101097.06
2022-11-28T19:01:55.335Z,101095.22
2022-11-28T19:04:22.010Z,101104.19
2022-11-28T19:06:48.708Z,101106.75
2022-11-28T19:09:15.833Z,101094.94
2022-11-28T19:11:42.558Z,101092.94
2022-11-28T19:14:10.382Z,101095.66
2022-11-28T19:16:37.885Z,101085.53
2022-11-28T19:19:05.209Z,101097.78
2022-11-28T19:21:33.200Z,101087.81
2022-11-28T19:24:00.109Z,101090.53
2022-11-28T19:26:27.525Z,101089.41
2022-11-28T19:28:54.251Z,101093.97
2022-11-28T19:31:27.057Z,101085.72
2022-11-28T19:34:14.627Z,101084.72
2022-11-28T19:36:45.729Z,101087.41
2022-11-28T19:39:17.001Z,101087.72
2022-11-28T19:41:43.725Z,101086.84
2022-11-28T19:44:11.247Z,101088.13
2022-11-28T19:46:37.881Z,101081.28
2022-11-28T19:49:05.123Z,101092.25
2022-11-28T19:51:31.701Z,101092.66
2022-11-28T19:54:03.127Z,101100.78
2022-11-28T19:56:31.378Z,101099.03
2022-11-28T19:58:58.314Z,101107.56
2022-11-28T20:01:24.994Z,101105.81
2022-11-28T20:03:51.735Z,101101.66
2022-11-28T20:06:23.157Z,101098.72
2022-11-28T20:08:50.630Z,101099.31
2022-11-28T20:11:22.130Z,101095.41
2022-11-28T20:13:49.281Z,101088.53
2022-11-28T20:16:17.303Z,101080.34
2022-11-28T20:18:44.438Z,101092.13
2022-11-28T20:21:15.517Z,101103.12
2022-11-28T20:23:43.742Z,101094.19
2022-11-28T20:26:10.494Z,101090.03
2022-11-28T20:28:37.933Z,101092.81
2022-11-28T20:31:04.786Z,101096.06
2022-11-28T20:33:31.385Z,101097.78
2022-11-28T20:36:07.687Z,101094.09
2022-11-28T20:38:34.273Z,101094.84
2022-11-28T20:41:05.257Z,101098.06
2022-11-28T20:43:32.226Z,101097.53
2022-11-28T20:46:12.569Z,101099.75
2022-11-28T20:48:39.328Z,101096.78
2022-11-28T20:51:13.785Z,101098.88
2022-11-28T20:53:41.369Z,101100.16
2022-11-28T20:56:15.262Z,101095.22
2022-11-28T20:58:41.911Z,101098.22
2022-11-28T21:01:08.565Z,101102.91
2022-11-28T21:03:35.194Z,101104.97
2022-11-28T21:06:01.882Z,101100.97
2022-11-28T21:08:31.331Z,101105.91
2022-11-28T21:10:57.968Z,101099.91
2022-11-28T21:13:24.649Z,101103.69
2022-11-28T21:15:52.197Z,101105.28
2022-11-28T21:18:18.825Z,101110.25
2022-11-28T21:20:46.176Z,101111.78
2022-11-28T21:23:13.249Z,101106.28
2022-11-28T21:25:39.943Z,101115.56
2022-11-28T21:28:09.133Z,101113.62
2022-11-28T21:30:40.439Z,101110.75
2022-11-28T21:33:07.029Z,101107.81
2022-11-28T21:35:37.089Z,101107.75
2022-11-28T21:38:04.349Z,101106.44
2022-11-28T21:40:31.087Z,101110.09
2022-11-28T21:42:57.937Z,101107.19
2022-11-28T21:45:24.759Z,101111.59
2022-11-28T21:47:51.473Z,101107.09
2022-11-28T21:50:18.113Z,101101.47
2022-11-28T21:52:44.701Z,101111.37
2022-11-28T21:55:11.705Z,101108.37
2022-11-28T21:57:38.361Z,101111.25
2022-11-28T22:00:05.599Z,101110.06
2022-11-28T22:02:32.395Z,101115.44
2022-11-28T22:05:00.061Z,101114.59
2022-11-28T22:07:26.712Z,101107.31
2022-11-28T22:09:54.181Z,101115.37
2022-11-28T22:12:20.750Z,101111.69
2022-11-28T22:14:47.576Z,101115.25
2022-11-28T22:17:14.249Z,101115.91
2022-11-28T22:19:41.356Z,101115.25
2022-11-28T22:22:08.082Z,101106.22
2022-11-28T22:24:34.657Z,101108.81
2022-11-28T22:27:01.306Z,101111.69
2022-11-28T22:29:27.928Z,101107.84
2022-11-28T22:31:54.713Z,101112.56
2022-11-28T22:34:21.346Z,101117.59
2022-11-28T22:36:47.944Z,101111.50
2022-11-28T22:39:14.537Z,101107.91
2022-11-28T22:41:41.126Z,101111.50
2022-11-28T22:44:07.710Z,101107.06
2022-11-28T22:46:34.291Z,101098.91
2022-11-28T22:49:01.051Z,101097.19
2022-11-28T22:51:27.925Z,101105.16
2022-11-28T22:53:55.447Z,101097.09
2022-11-28T22:56:22.089Z,101107.84
2022-11-28T22:58:48.722Z,101107.72
2022-11-28T23:01:20.254Z,101106.12
2022-11-28T23:03:49.539Z,101106.00
2022-11-28T23:06:17.843Z,101105.34
2022-11-28T23:08:44.478Z,101107.84
2022-11-28T23:11:12.965Z,101110.59
2022-11-28T23:13:39.807Z,101110.53
2022-11-28T23:16:14.300Z,101108.56
2022-11-28T23:18:40.966Z,101112.34
2022-11-28T23:21:07.707Z,101110.41
2022-11-28T23:23:34.550Z,101108.81
2022-11-28T23:26:08.512Z,101108.56
2022-11-28T23:28:35.104Z,101109.66
2022-11-28T23:31:06.313Z,101119.31
2022-11-28T23:33:33.045Z,101112.22
2022-11-28T23:35:59.730Z,101110.53
2022-11-28T23:38:26.295Z,101113.94
2022-11-28T23:40:56.790Z,101112.34
2022-11-28T23:43:23.441Z,101116.75
2022-11-28T23:45:50.167Z,101119.56
2022-11-28T23:48:16.909Z,101111.37
2022-11-28T23:50:43.476Z,101109.66
2022-11-28T23:53:10.124Z,101105.16
2022-11-28T23:55:36.708Z,101101.50
2022-11-28T23:58:03.293Z,101105.16
